Time;durP1;ratioP1;P1;durP2;ratioP2;P2;SDS_P1;SDS_P2;PMS_P1;PMS_P2;Temp;Humidity;BMP_temperature;BMP_pressure;BME280_temperature;BME280_humidity;BME280_pressure;Samples;Min_cycle;Max_cycle;Signal;HPM_P1;HPM_P2
2022/04/06 00:00:53;;;;;;;14.50;7.43;;;;;;;4.66;94.47;98493.44;4181343;28;20512;-61
2022/04/06 00:03:20;;;;;;;13.37;7.57;;;;;;;4.65;95.07;98492.59;4203097;28;20237;-63
2022/04/06 00:05:47;;;;;;;13.33;6.97;;;;;;;4.72;94.73;98497.25;4208588;28;20243;-62
2022/04/06 00:08:13;;;;;;;14.07;7.30;;;;;;;4.60;95.51;98494.88;4181807;28;20295;-62
2022/04/06 00:10:40;;;;;;;16.23;7.90;;;;;;;4.64;96.05;98495.41;4183854;28;20585;-64
2022/04/06 00:13:06;;;;;;;15.60;7.10;;;;;;;4.63;96.96;98499.81;4190342;28;20323;-63
2022/04/06 00:15:34;;;;;;;15.87;7.80;;;;;;;4.67;96.44;98499.53;4190565;28;20310;-66
2022/04/06 00:18:00;;;;;;;14.57;8.30;;;;;;;4.57;97.97;98499.63;4181216;28;20344;-62
2022/04/06 00:20:27;;;;;;;18.10;8.33;;;;;;;4.45;99.14;98501.69;4193935;28;20553;-61
2022/04/06 00:22:54;;;;;;;17.63;9.30;;;;;;;4.42;100.00;98507.25;4191351;28;20334;-61
2022/04/06 00:25:20;;;;;;;19.47;8.67;;;;;;;4.53;100.00;98503.53;4196896;28;21240;-61
2022/04/06 00:27:47;;;;;;;16.70;9.27;;;;;;;4.63;99.19;98514.78;4173834;28;21099;-62
2022/04/06 00:30:13;;;;;;;19.20;9.23;;;;;;;4.48;100.00;98511.91;4170425;28;20238;-62
2022/04/06 00:32:40;;;;;;;18.23;9.50;;;;;;;4.35;100.00;98503.56;4191531;28;20234;-62
2022/04/06 00:37:52;;;;;;;17.20;8.93;;;;;;;4.53;100.00;98499.09;4202416;28;21262;-60
2022/04/06 00:40:19;;;;;;;17.00;10.10;;;;;;;4.45;100.00;98488.53;4174536;28;22584;-62
2022/04/06 00:42:46;;;;;;;21.67;10.47;;;;;;;4.40;100.00;98494.25;4175299;28;20316;-62
2022/04/06 00:45:13;;;;;;;19.07;10.67;;;;;;;4.40;100.00;98504.78;4176422;28;20585;-64
2022/04/06 00:47:40;;;;;;;18.70;9.97;;;;;;;4.42;100.00;98504.59;4188299;28;20242;-60
2022/04/06 00:50:06;;;;;;;21.47;10.80;;;;;;;4.36;100.00;98513.13;4188819;28;22934;-61
2022/04/06 00:52:33;;;;;;;20.27;10.27;;;;;;;4.42;100.00;98486.16;4171266;28;20310;-61
2022/04/06 00:55:00;;;;;;;19.93;11.30;;;;;;;4.39;100.00;98486.50;4185369;28;20240;-62
2022/04/06 00:57:27;;;;;;;17.70;9.90;;;;;;;4.38;100.00;98484.84;4195468;28;20291;-61
2022/04/06 00:59:56;;;;;;;19.80;11.37;;;;;;;4.40;100.00;98493.41;4176325;28;20250;-63
2022/04/06 01:02:23;;;;;;;20.07;10.47;;;;;;;4.30;100.00;98505.84;4189657;28;20470;-63
2022/04/06 01:04:50;;;;;;;22.07;11.47;;;;;;;4.33;100.00;98492.34;4166731;28;20291;-62
2022/04/06 01:07:18;;;;;;;22.90;11.00;;;;;;;4.33;100.00;98489.72;4192344;28;20232;-63
2022/04/06 01:09:46;;;;;;;20.27;10.70;;;;;;;4.28;100.00;98494.63;4189286;28;20236;-61
2022/04/06 01:12:13;;;;;;;21.40;11.80;;;;;;;4.26;100.00;98491.31;4203788;28;21063;-60
2022/04/06 01:14:40;;;;;;;23.43;11.53;;;;;;;4.25;100.00;98501.03;4191487;28;20236;-62
2022/04/06 01:17:08;;;;;;;24.97;12.23;;;;;;;4.19;100.00;98501.63;4188808;28;20232;-63
2022/04/06 01:19:40;;;;;;;22.50;12.47;;;;;;;4.18;100.00;98508.69;4173964;28;20454;-62
2022/04/06 01:22:14;;;;;;;27.13;12.43;;;;;;;4.19;100.00;98506.88;4203687;28;20354;-63
2022/04/06 01:24:42;;;;;;;23.27;11.80;;;;;;;4.21;100.00;98500.53;4173791;28;20251;-64
2022/04/06 01:27:09;;;;;;;26.20;12.37;;;;;;;4.19;100.00;98504.25;4174162;28;20688;-57
2022/04/06 01:29:35;;;;;;;28.50;12.10;;;;;;;4.20;100.00;98504.13;4187541;28;20340;-61
2022/04/06 01:32:18;;;;;;;22.30;12.43;;;;;;;4.18;100.00;98500.81;4189821;28;20360;-64
2022/04/06 01:34:45;;;;;;;22.77;12.60;;;;;;;4.17;100.00;98498.34;4187702;28;20324;-63
2022/04/06 01:37:13;;;;;;;23.30;12.93;;;;;;;4.14;100.00;98491.53;4175385;28;21480;-63
2022/04/06 01:39:41;;;;;;;24.17;13.73;;;;;;;4.14;100.00;98496.81;4170589;28;20327;-63
2022/04/06 01:42:10;;;;;;;28.23;14.20;;;;;;;4.10;100.00;98492.84;4195032;28;20487;-61
2022/04/06 01:44:36;;;;;;;27.17;13.70;;;;;;;4.11;100.00;98489.22;4197962;28;20375;-62
2022/04/06 01:47:04;;;;;;;27.53;14.63;;;;;;;4.10;100.00;98492.03;4184906;28;20949;-61
2022/04/06 01:52:17;;;;;;;30.20;14.87;;;;;;;4.09;100.00;98490.38;4194722;28;23053;-63
2022/04/06 01:54:47;;;;;;;28.87;15.10;;;;;;;4.07;100.00;98487.88;4200315;28;21271;-62
2022/04/06 01:57:14;;;;;;;28.23;14.83;;;;;;;4.11;100.00;98489.22;4185386;28;20305;-61
2022/04/06 01:59:41;;;;;;;28.50;15.33;;;;;;;4.06;100.00;98486.22;4182433;28;20639;-60
2022/04/06 02:02:09;;;;;;;27.43;14.00;;;;;;;4.08;100.00;98484.28;4204819;28;20292;-63
2022/04/06 02:04:39;;;;;;;26.10;14.00;;;;;;;4.06;100.00;98485.41;4183261;28;20617;-62
2022/04/06 02:07:06;;;;;;;29.77;14.63;;;;;;;4.02;100.00;98479.59;4156733;28;21810;-61
2022/04/06 02:09:33;;;;;;;28.27;15.27;;;;;;;4.02;100.00;98484.88;4198491;28;20241;-61
2022/04/06 02:12:00;;;;;;;28.10;15.23;;;;;;;4.06;100.00;98488.88;4193032;28;20244;-62
2022/04/06 02:14:26;;;;;;;30.53;15.37;;;;;;;4.05;100.00;98495.13;4196495;28;21315;-60
2022/04/06 02:16:54;;;;;;;27.57;14.73;;;;;;;4.06;100.00;98491.50;4183082;28;20229;-62
2022/04/06 02:19:21;;;;;;;32.63;15.23;;;;;;;4.16;100.00;98509.84;4167552;28;20238;-61
2022/04/06 02:21:47;;;;;;;28.20;15.73;;;;;;;4.28;100.00;98505.16;4182725;28;20241;-65
2022/04/06 02:24:14;;;;;;;30.60;16.07;;;;;;;4.20;100.00;98517.28;4175299;28;20248;-61
2022/04/06 02:26:40;;;;;;;29.40;17.03;;;;;;;4.26;100.00;98515.00;4190196;28;20245;-61
2022/04/06 02:29:07;;;;;;;29.93;16.73;;;;;;;4.22;100.00;98522.41;4189301;28;21727;-62
2022/04/06 02:31:34;;;;;;;26.27;15.17;;;;;;;4.17;100.00;98522.03;4173787;28;20234;-63
2022/04/06 02:34:00;;;;;;;29.07;12.53;;;;;;;3.86;100.00;98506.59;4191534;28;20245;-62
2022/04/06 02:36:27;;;;;;;25.97;12.50;;;;;;;3.87;100.00;98507.44;4174763;28;20255;-61
2022/04/06 02:38:54;;;;;;;25.20;12.17;;;;;;;3.86;100.00;98511.03;4169148;28;20246;-64
2022/04/06 02:41:20;;;;;;;22.67;12.17;;;;;;;3.75;100.00;98522.63;4188555;28;20403;-63
2022/04/06 02:43:47;;;;;;;21.30;11.57;;;;;;;3.71;100.00;98524.72;4177706;28;20241;-62
2022/04/06 02:46:13;;;;;;;25.77;11.63;;;;;;;3.54;100.00;98522.88;4176532;28;20309;-63
2022/04/06 02:48:40;;;;;;;22.37;11.47;;;;;;;3.49;100.00;98525.09;4177269;28;21459;-61
2022/04/06 02:51:07;;;;;;;24.97;11.80;;;;;;;3.49;100.00;98531.22;4179679;28;21206;-63
2022/04/06 02:53:33;;;;;;;25.33;11.50;;;;;;;3.50;100.00;98530.22;4195153;28;20283;-63
2022/04/06 02:56:00;;;;;;;24.20;11.40;;;;;;;3.40;100.00;98531.28;4179670;28;22088;-62
2022/04/06 02:58:26;;;;;;;25.90;11.50;;;;;;;3.47;100.00;98533.16;4193559;28;20293;-64
2022/04/06 03:00:54;;;;;;;22.07;11.90;;;;;;;3.52;100.00;98535.34;4178043;28;20261;-62
2022/04/06 03:03:21;;;;;;;24.80;10.93;;;;;;;3.50;100.00;98537.31;4171364;28;20263;-62
2022/04/06 03:05:48;;;;;;;30.90;11.50;;;;;;;3.44;100.00;98537.88;4187273;28;20613;-62
2022/04/06 03:08:15;;;;;;;25.00;11.40;;;;;;;3.54;100.00;98538.66;4189824;28;21426;-62
2022/04/06 03:10:41;;;;;;;21.33;11.27;;;;;;;3.56;100.00;98548.06;4191538;28;21358;-62
2022/04/06 03:13:08;;;;;;;24.87;11.47;;;;;;;3.53;100.00;98560.66;4182136;28;21307;-62
2022/04/06 03:15:35;;;;;;;25.67;11.90;;;;;;;3.48;100.00;98558.47;4181628;28;20302;-61
2022/04/06 03:18:03;;;;;;;23.60;11.67;;;;;;;3.31;100.00;98560.06;4189413;28;20403;-63
2022/04/06 03:20:29;;;;;;;25.30;11.70;;;;;;;3.41;100.00;98559.22;4163297;28;20704;-61
2022/04/06 03:22:56;;;;;;;22.67;11.43;;;;;;;3.54;100.00;98564.97;4178477;28;23692;-62
2022/04/06 03:25:22;;;;;;;25.17;10.93;;;;;;;3.59;100.00;98575.88;4193039;28;20232;-63
2022/04/06 03:27:49;;;;;;;24.63;10.80;;;;;;;3.33;100.00;98560.75;4199709;28;21841;-63
2022/04/06 03:30:16;;;;;;;23.50;11.23;;;;;;;3.35;100.00;98561.44;4179370;28;20242;-63
2022/04/06 03:32:42;;;;;;;23.40;10.73;;;;;;;3.18;100.00;98564.81;4182546;28;21251;-62
2022/04/06 03:35:09;;;;;;;24.43;11.80;;;;;;;3.20;100.00;98573.41;4191919;28;20301;-63
2022/04/06 03:37:35;;;;;;;24.23;11.90;;;;;;;3.24;100.00;98569.53;4215278;28;20232;-63
2022/04/06 03:40:05;;;;;;;27.03;12.03;;;;;;;3.21;100.00;98575.06;4190582;28;20403;-62
2022/04/06 03:42:33;;;;;;;21.80;11.97;;;;;;;3.17;100.00;98576.31;4182042;28;21460;-61
2022/04/06 03:45:00;;;;;;;29.20;12.83;;;;;;;2.96;100.00;98582.59;4180206;28;20905;-64
2022/04/06 03:47:30;;;;;;;25.87;12.17;;;;;;;3.16;100.00;98587.78;4192506;28;20643;-63
2022/04/06 03:49:57;;;;;;;24.87;11.80;;;;;;;3.16;100.00;98588.66;4177864;28;20234;-64
2022/04/06 03:52:23;;;;;;;22.63;12.57;;;;;;;3.20;100.00;98583.09;4176721;28;20311;-65
2022/04/06 03:54:50;;;;;;;25.47;12.70;;;;;;;3.27;100.00;98585.00;4198925;28;20415;-63
2022/04/06 03:57:16;;;;;;;30.93;12.20;;;;;;;3.31;100.00;98591.63;4176406;28;20234;-63
2022/04/06 03:59:43;;;;;;;26.10;12.47;;;;;;;3.36;100.00;98589.38;4195646;28;20313;-65
2022/04/06 04:02:09;;;;;;;24.67;11.47;;;;;;;3.36;100.00;98604.34;4193493;28;20248;-62
2022/04/06 04:04:36;;;;;;;22.50;12.10;;;;;;;3.37;100.00;98613.88;4186514;28;21999;-61
2022/04/06 04:07:03;;;;;;;24.87;11.43;;;;;;;3.36;100.00;98613.03;4180049;28;20245;-62
2022/04/06 04:09:30;;;;;;;22.33;12.17;;;;;;;3.35;100.00;98613.22;4195561;28;20349;-61
2022/04/06 04:11:56;;;;;;;24.37;12.13;;;;;;;3.38;100.00;98615.53;4203757;28;20236;-63
2022/04/06 04:14:23;;;;;;;24.90;12.87;;;;;;;3.41;100.00;98617.06;4185042;28;20380;-63
2022/04/06 04:16:50;;;;;;;28.40;12.73;;;;;;;3.34;100.00;98609.72;4189669;28;20283;-63
2022/04/06 04:19:16;;;;;;;23.73;12.33;;;;;;;3.38;100.00;98619.00;4184092;28;22968;-62
2022/04/06 04:21:43;;;;;;;23.70;13.07;;;;;;;3.21;100.00;98621.53;4191412;28;21978;-63
2022/04/06 04:24:10;;;;;;;23.70;13.03;;;;;;;3.30;100.00;98618.03;4156791;28;20231;-62
2022/04/06 04:26:38;;;;;;;22.47;12.60;;;;;;;3.37;100.00;98627.88;4176818;28;20234;-62
2022/04/06 04:29:06;;;;;;;24.90;13.60;;;;;;;3.35;100.00;98621.09;4182722;28;20232;-64
2022/04/06 04:31:32;;;;;;;25.90;13.13;;;;;;;3.43;100.00;98625.63;4173675;28;20611;-63
2022/04/06 04:33:59;;;;;;;25.13;14.33;;;;;;;3.43;100.00;98621.19;4171881;28;21036;-62
2022/04/06 04:36:26;;;;;;;32.47;15.97;;;;;;;3.41;100.00;98623.13;4185678;28;20232;-63
2022/04/06 04:38:53;;;;;;;31.60;15.77;;;;;;;3.49;100.00;98614.50;4188083;28;20786;-62
2022/04/06 04:41:20;;;;;;;28.90;15.40;;;;;;;3.43;100.00;98626.44;4183873;28;20726;-63
2022/04/06 04:43:47;;;;;;;25.37;14.13;;;;;;;3.53;100.00;98621.16;4188679;28;20248;-61
2022/04/06 04:46:13;;;;;;;30.63;16.03;;;;;;;3.43;100.00;98623.00;4188573;28;20295;-62
2022/04/06 04:48:40;;;;;;;27.53;14.37;;;;;;;3.43;100.00;98620.38;4180446;28;20350;-64
2022/04/06 04:51:06;;;;;;;27.40;14.37;;;;;;;3.48;100.00;98631.28;4190858;28;20289;-64
2022/04/06 04:53:33;;;;;;;25.03;13.93;;;;;;;3.50;100.00;98637.22;4172133;28;21814;-64
2022/04/06 04:55:59;;;;;;;25.00;14.67;;;;;;;3.41;100.00;98631.03;4189377;28;20236;-63
2022/04/06 04:58:27;;;;;;;26.97;14.90;;;;;;;3.49;100.00;98643.44;4168911;28;20241;-63
2022/04/06 05:00:56;;;;;;;29.67;16.70;;;;;;;3.41;100.00;98644.16;4184808;28;20247;-63
2022/04/06 05:03:22;;;;;;;21.23;12.97;;;;;;;3.44;100.00;98643.03;4182809;28;21564;-61
2022/04/06 05:05:53;;;;;;;26.57;14.83;;;;;;;3.49;100.00;98648.69;4185912;28;21200;-62
2022/04/06 05:08:24;;;;;;;21.13;14.03;;;;;;;3.47;100.00;98654.13;4189652;28;25688;-64
2022/04/06 05:10:51;;;;;;;24.20;13.73;;;;;;;3.59;100.00;98654.78;4184172;28;23015;-64
2022/04/06 05:13:18;;;;;;;21.93;13.77;;;;;;;3.37;100.00;98654.16;4193337;28;20228;-62
2022/04/06 05:15:45;;;;;;;26.27;13.57;;;;;;;3.19;100.00;98658.50;4187379;28;21843;-64
2022/04/06 05:18:12;;;;;;;22.30;13.70;;;;;;;3.24;100.00;98652.81;4166428;28;20371;-63
2022/04/06 05:20:39;;;;;;;30.80;16.17;;;;;;;3.27;100.00;98655.97;4162190;28;20519;-62
2022/04/06 05:23:05;;;;;;;23.40;13.57;;;;;;;3.33;100.00;98665.91;4189753;28;20232;-62
2022/04/06 05:25:32;;;;;;;19.13;11.17;;;;;;;3.30;100.00;98676.72;4181388;28;23405;-62
2022/04/06 05:27:59;;;;;;;19.43;11.87;;;;;;;3.13;100.00;98677.44;4174845;28;21249;-63
2022/04/06 05:30:26;;;;;;;23.53;12.53;;;;;;;3.16;100.00;98682.41;4198885;28;20255;-63
2022/04/06 05:32:55;;;;;;;29.53;11.67;;;;;;;3.30;100.00;98695.13;4183719;28;20413;-63
2022/04/06 05:35:23;;;;;;;22.23;11.30;;;;;;;3.36;100.00;98689.28;4187692;28;20942;-64
2022/04/06 05:37:50;;;;;;;27.23;13.50;;;;;;;3.25;100.00;98689.44;4172749;28;21505;-61
2022/04/06 05:40:18;;;;;;;20.57;12.33;;;;;;;3.04;100.00;98683.53;4189892;28;20331;-62
2022/04/06 05:42:45;;;;;;;25.30;12.73;;;;;;;3.08;100.00;98690.19;4183269;28;20329;-62
2022/04/06 05:45:13;;;;;;;25.03;12.93;;;;;;;3.19;100.00;98700.53;4188927;28;20236;-64
2022/04/06 05:47:41;;;;;;;20.67;10.27;;;;;;;3.38;100.00;98694.41;4192646;28;20287;-64
2022/04/06 05:50:08;;;;;;;25.67;10.97;;;;;;;3.48;100.00;98702.28;4183522;28;20251;-64
2022/04/06 05:52:35;;;;;;;29.13;11.00;;;;;;;3.49;100.00;98706.53;4204144;28;20232;-61
2022/04/06 05:55:04;;;;;;;30.47;10.53;;;;;;;3.53;100.00;98700.84;4173537;28;26328;-65
2022/04/06 05:57:31;;;;;;;18.40;11.20;;;;;;;3.53;100.00;98703.50;4205025;28;20366;-65
2022/04/06 05:59:58;;;;;;;21.20;12.27;;;;;;;3.59;100.00;98700.31;4195404;28;20334;-63
2022/04/06 06:02:24;;;;;;;28.57;12.90;;;;;;;3.42;100.00;98702.84;4182947;28;20244;-63
2022/04/06 06:04:52;;;;;;;22.30;12.37;;;;;;;3.44;100.00;98704.38;4174166;28;20465;-62
2022/04/06 06:07:20;;;;;;;18.83;10.80;;;;;;;3.64;100.00;98707.75;4194325;28;20340;-64
2022/04/06 06:09:47;;;;;;;17.87;10.53;;;;;;;3.62;100.00;98712.34;4194501;28;21190;-66
2022/04/06 06:12:14;;;;;;;16.97;9.13;;;;;;;3.38;100.00;98726.78;4212007;28;20284;-62
2022/04/06 06:14:41;;;;;;;19.17;9.97;;;;;;;3.60;100.00;98727.41;4200532;28;20292;-67
2022/04/06 06:17:07;;;;;;;13.53;8.17;;;;;;;3.64;100.00;98720.09;4211128;28;20289;-62
2022/04/06 06:19:34;;;;;;;13.00;7.37;;;;;;;3.69;100.00;98723.13;4206740;28;20342;-64
2022/04/06 06:22:01;;;;;;;12.97;6.90;;;;;;;3.74;100.00;98720.88;4205875;28;20343;-62
2022/04/06 06:24:32;;;;;;;12.63;6.37;;;;;;;3.74;100.00;98723.50;4198554;28;20237;-64
2022/04/06 06:27:00;;;;;;;9.83;5.53;;;;;;;3.88;100.00;98724.84;4191340;28;21438;-62
2022/04/06 06:29:26;;;;;;;10.43;5.57;;;;;;;3.83;100.00;98722.66;4230152;28;20237;-63
2022/04/06 06:31:54;;;;;;;12.60;5.60;;;;;;;3.62;100.00;98720.22;4198201;28;23616;-63
2022/04/06 06:34:21;;;;;;;8.50;5.37;;;;;;;3.62;100.00;98725.47;4189789;28;20857;-63
2022/04/06 06:36:47;;;;;;;10.10;5.63;;;;;;;3.61;100.00;98723.84;4199989;28;22920;-64
2022/04/06 06:39:14;;;;;;;10.73;5.83;;;;;;;3.60;100.00;98722.16;4201444;28;22391;-63
2022/04/06 06:41:42;;;;;;;12.83;6.50;;;;;;;3.48;100.00;98716.25;4187413;28;21989;-64
2022/04/06 06:44:09;;;;;;;13.60;6.17;;;;;;;3.61;100.00;98712.50;4178703;28;22211;-63
2022/04/06 06:46:36;;;;;;;13.67;7.00;;;;;;;3.85;100.00;98714.63;4179192;28;20229;-63
2022/04/06 06:49:03;;;;;;;11.53;6.50;;;;;;;4.07;100.00;98724.75;4180313;28;20274;-65
2022/04/06 06:51:30;;;;;;;11.60;7.40;;;;;;;4.23;100.00;98722.31;4181366;28;20516;-64
2022/04/06 06:53:58;;;;;;;14.97;8.23;;;;;;;4.18;100.00;98719.31;4208819;28;20248;-62
2022/04/06 06:56:25;;;;;;;13.87;7.60;;;;;;;4.21;100.00;98716.41;4172850;28;20293;-61
2022/04/06 06:58:51;;;;;;;14.30;8.17;;;;;;;4.15;100.00;98722.25;4180289;28;20244;-62
2022/04/06 07:01:18;;;;;;;13.73;8.13;;;;;;;4.33;100.00;98721.44;4225580;28;20251;-62
2022/04/06 07:03:45;;;;;;;17.17;8.67;;;;;;;4.42;100.00;98723.19;4195142;28;20327;-62
2022/04/06 07:06:11;;;;;;;17.23;9.50;;;;;;;4.34;100.00;98720.47;4187775;28;20937;-61
2022/04/06 07:08:38;;;;;;;18.07;9.83;;;;;;;4.41;100.00;98716.28;4192871;28;20240;-63
2022/04/06 07:11:05;;;;;;;17.63;8.97;;;;;;;4.15;100.00;98718.78;4182761;28;21714;-63
2022/04/06 07:13:31;;;;;;;13.47;8.97;;;;;;;3.87;100.00;98723.19;4205642;28;21202;-63
2022/04/06 07:15:58;;;;;;;19.87;9.53;;;;;;;3.89;100.00;98726.53;4177739;28;20578;-66
2022/04/06 07:18:25;;;;;;;16.30;9.00;;;;;;;3.98;100.00;98717.72;4194947;28;20232;-62
2022/04/06 07:20:58;;;;;;;16.77;9.90;;;;;;;4.09;100.00;98722.81;4188176;28;21262;-61
2022/04/06 07:23:25;;;;;;;16.63;10.60;;;;;;;4.12;100.00;98721.69;4183051;28;20451;-63
2022/04/06 07:25:52;;;;;;;16.03;9.30;;;;;;;4.17;100.00;98719.47;4196899;28;20242;-62
2022/04/06 07:28:19;;;;;;;19.93;10.23;;;;;;;4.23;100.00;98719.69;4195926;28;20852;-63
2022/04/06 07:30:45;;;;;;;18.17;9.63;;;;;;;4.20;100.00;98722.63;4177402;28;21643;-63
2022/04/06 07:33:15;;;;;;;18.60;10.13;;;;;;;4.05;100.00;98721.47;4173276;28;20234;-64
2022/04/06 07:35:42;;;;;;;15.43;9.90;;;;;;;4.05;100.00;98721.47;4179428;28;20241;-64
2022/04/06 07:38:12;;;;;;;20.47;10.73;;;;;;;3.90;100.00;98717.63;4186051;28;20233;-65
2022/04/06 07:40:40;;;;;;;26.23;12.30;;;;;;;3.94;100.00;98719.00;4202180;28;20240;-66
2022/04/06 07:43:08;;;;;;;21.03;10.70;;;;;;;4.04;100.00;98725.06;4196608;28;22799;-63
2022/04/06 07:45:34;;;;;;;15.83;9.07;;;;;;;3.86;100.00;98718.91;4203236;28;20240;-70
2022/04/06 07:48:03;;;;;;;19.13;9.33;;;;;;;3.69;100.00;98726.56;4198486;28;20288;-64
2022/04/06 07:50:31;;;;;;;18.90;8.93;;;;;;;3.63;100.00;98727.16;4189476;28;20271;-62
2022/04/06 07:52:58;;;;;;;18.60;8.67;;;;;;;3.79;100.00;98716.88;4198954;28;20514;-62
2022/04/06 07:55:24;;;;;;;16.27;8.30;;;;;;;3.85;100.00;98720.69;4203277;28;20282;-65
2022/04/06 07:57:51;;;;;;;15.93;8.33;;;;;;;3.95;100.00;98720.66;4199804;28;20248;-64
2022/04/06 08:00:18;;;;;;;13.23;7.60;;;;;;;3.80;100.00;98713.25;4195672;28;21711;-67
2022/04/06 08:02:46;;;;;;;17.30;8.67;;;;;;;3.90;100.00;98712.38;4175044;28;20880;-67
2022/04/06 08:05:13;;;;;;;23.93;9.57;;;;;;;4.04;100.00;98706.63;4195021;28;20715;-63
2022/04/06 08:07:43;;;;;;;17.90;10.17;;;;;;;4.12;100.00;98711.16;4209696;28;21519;-64
2022/04/06 08:10:12;;;;;;;19.63;11.00;;;;;;;4.09;100.00;98707.00;4191592;28;23099;-65
2022/04/06 08:12:39;;;;;;;18.77;10.23;;;;;;;4.15;100.00;98706.44;4198447;28;20237;-62
2022/04/06 08:15:08;;;;;;;25.13;11.37;;;;;;;3.96;100.00;98701.28;4178095;28;20255;-63
2022/04/06 08:17:42;;;;;;;26.27;11.63;;;;;;;3.79;100.00;98700.22;4191100;28;22450;-62
2022/04/06 08:20:13;;;;;;;20.90;11.67;;;;;;;3.99;100.00;98711.50;4222217;28;20239;-65
2022/04/06 08:22:41;;;;;;;26.70;12.63;;;;;;;4.17;100.00;98716.84;4191953;28;20245;-63
2022/04/06 08:25:08;;;;;;;26.10;13.43;;;;;;;4.05;100.00;98712.72;4187186;28;20582;-62
2022/04/06 08:27:55;;;;;;;26.13;13.60;;;;;;;4.14;100.00;98707.41;4187602;28;20232;-62
2022/04/06 08:30:22;;;;;;;29.90;14.33;;;;;;;4.10;100.00;98713.97;4196292;28;20844;-61
2022/04/06 08:32:49;;;;;;;29.93;15.30;;;;;;;4.17;100.00;98719.47;4187058;28;20291;-61
2022/04/06 08:35:17;;;;;;;29.73;14.60;;;;;;;4.22;100.00;98704.06;4186626;28;20237;-64
2022/04/06 08:37:46;;;;;;;29.53;15.67;;;;;;;4.17;100.00;98715.03;4175256;28;20233;-60
2022/04/06 08:40:13;;;;;;;30.30;15.80;;;;;;;4.31;100.00;98732.13;4175816;28;23539;-62
2022/04/06 08:42:40;;;;;;;30.10;15.70;;;;;;;4.25;100.00;98729.25;4186347;28;20465;-61
2022/04/06 08:45:08;;;;;;;24.73;13.87;;;;;;;4.13;100.00;98734.72;4186304;28;23397;-62
2022/04/06 08:47:36;;;;;;;28.37;14.63;;;;;;;4.08;100.00;98736.13;4177736;28;20280;-62
2022/04/06 08:50:04;;;;;;;29.93;16.43;;;;;;;3.98;100.00;98741.41;4167143;28;20337;-61
2022/04/06 08:52:32;;;;;;;27.00;15.20;;;;;;;4.09;100.00;98733.34;4189384;28;20240;-66
2022/04/06 08:55:19;;;;;;;33.60;16.17;;;;;;;3.94;100.00;98726.91;4188738;28;20233;-61
2022/04/06 08:57:46;;;;;;;35.47;16.67;;;;;;;3.89;100.00;98731.78;4189441;28;20232;-62
2022/04/06 09:00:15;;;;;;;37.17;17.53;;;;;;;3.95;100.00;98728.56;4178812;28;20233;-64
2022/04/06 09:02:42;;;;;;;35.33;17.97;;;;;;;3.90;100.00;98722.91;4184142;28;20485;-62
2022/04/06 09:05:11;;;;;;;38.83;18.83;;;;;;;3.92;100.00;98715.69;4208233;28;20236;-64
2022/04/06 09:07:39;;;;;;;31.93;19.23;;;;;;;3.92;100.00;98720.97;4182557;28;20303;-63
2022/04/06 09:10:06;;;;;;;46.37;18.93;;;;;;;3.99;100.00;98716.78;4188832;28;20241;-62
2022/04/06 09:12:33;;;;;;;33.40;19.00;;;;;;;4.15;100.00;98722.25;4200723;28;20236;-65
2022/04/06 09:15:06;;;;;;;36.57;18.50;;;;;;;4.22;100.00;98709.31;4193605;28;20462;-63
2022/04/06 09:17:47;;;;;;;39.50;19.40;;;;;;;4.27;100.00;98708.88;4197766;28;20293;-63
2022/04/06 09:20:15;;;;;;;44.80;20.07;;;;;;;4.22;100.00;98704.88;4195993;28;20237;-63
2022/04/06 09:22:46;;;;;;;39.50;19.03;;;;;;;4.19;100.00;98699.91;4174239;28;20344;-63
2022/04/06 09:25:14;;;;;;;45.97;19.83;;;;;;;4.13;100.00;98692.59;4182656;28;20232;-63
2022/04/06 09:27:41;;;;;;;38.03;19.30;;;;;;;4.21;100.00;98694.47;4198323;28;21298;-63
2022/04/06 09:30:09;;;;;;;39.77;18.37;;;;;;;4.33;100.00;98700.38;4175783;28;21826;-65
2022/04/06 09:32:35;;;;;;;32.10;18.50;;;;;;;4.35;100.00;98695.78;4189727;28;20485;-64
2022/04/06 09:35:26;;;;;;;37.63;17.70;;;;;;;4.25;100.00;98687.94;4165635;28;20305;-61
2022/04/06 09:38:13;;;;;;;34.60;18.70;;;;;;;4.27;100.00;98695.72;4209139;28;20237;-64
2022/04/06 09:40:40;;;;;;;37.77;17.93;;;;;;;4.28;100.00;98700.00;4202296;28;20826;-65
2022/04/06 09:43:08;;;;;;;37.07;17.87;;;;;;;4.11;100.00;98684.00;4177601;28;20271;-65
2022/04/06 09:48:20;;;;;;;38.83;19.33;;;;;;;4.02;100.00;98693.59;4183039;28;23556;-64
2022/04/06 09:50:55;;;;;;;40.53;18.80;;;;;;;4.03;100.00;98702.34;4177005;28;20237;-60
2022/04/06 09:53:27;;;;;;;36.20;18.17;;;;;;;4.18;100.00;98697.41;4173124;28;21881;-67
2022/04/06 09:55:55;;;;;;;43.37;18.87;;;;;;;4.36;100.00;98702.72;4188292;28;20418;-60
2022/04/06 09:58:23;;;;;;;31.57;17.43;;;;;;;4.37;100.00;98709.63;4175740;28;20240;-63
2022/04/06 10:00:52;;;;;;;34.80;17.97;;;;;;;4.41;100.00;98711.00;4202602;28;21997;-61
2022/04/06 10:03:20;;;;;;;33.67;17.37;;;;;;;4.43;100.00;98709.06;4174370;28;21491;-65
2022/04/06 10:05:49;;;;;;;32.33;17.87;;;;;;;4.34;100.00;98694.16;4179496;28;20456;-63
2022/04/06 10:08:17;;;;;;;29.90;17.37;;;;;;;4.35;100.00;98717.69;4194953;28;20226;-62
2022/04/06 10:10:45;;;;;;;31.80;16.97;;;;;;;4.42;100.00;98702.97;4208377;28;20232;-60
2022/04/06 10:13:12;;;;;;;28.57;17.30;;;;;;;4.58;100.00;98691.75;4188432;28;20239;-60
2022/04/06 10:15:59;;;;;;;36.57;17.77;;;;;;;4.91;100.00;98692.03;4212936;28;20237;-60
2022/04/06 10:18:27;;;;;;;29.03;17.03;;;;;;;5.08;100.00;98693.03;4207096;28;26544;-63
2022/04/06 10:21:00;;;;;;;33.03;18.47;;;;;;;5.16;100.00;98685.16;4170458;28;20241;-60
2022/04/06 10:23:54;;;;;;;36.10;18.87;;;;;;;5.31;100.00;98687.25;4191033;28;20286;-63
2022/04/06 10:26:44;;;;;;;27.57;17.07;;;;;;;5.54;100.00;98683.09;4187176;28;21859;-61
2022/04/06 10:29:11;;;;;;;31.37;18.07;;;;;;;5.59;100.00;98680.81;4180907;28;26320;-61
2022/04/06 10:31:38;;;;;;;28.63;17.77;;;;;;;5.63;100.00;98682.16;4194580;28;20232;-61
2022/04/06 10:34:21;;;;;;;29.67;17.27;;;;;;;5.66;100.00;98684.47;4192169;28;20268;-60
2022/04/06 10:37:10;;;;;;;29.10;18.60;;;;;;;5.80;100.00;98671.69;4194938;28;20768;-61
2022/04/06 10:39:51;;;;;;;41.93;20.20;;;;;;;5.86;100.00;98677.19;4224818;28;20243;-61
2022/04/06 10:42:36;;;;;;;33.60;18.40;;;;;;;5.97;100.00;98677.91;4189805;28;20229;-62
2022/04/06 10:45:04;;;;;;;32.57;19.23;;;;;;;6.07;100.00;98673.34;4182733;28;20228;-63
2022/04/06 10:47:32;;;;;;;32.27;20.07;;;;;;;6.07;100.00;98675.97;4204467;28;21972;-61
2022/04/06 10:50:08;;;;;;;31.60;19.47;;;;;;;6.06;100.00;98663.75;4209234;28;20229;-64
2022/04/06 10:52:35;;;;;;;29.27;18.63;;;;;;;6.15;100.00;98676.00;4205474;28;20233;-60
2022/04/06 10:55:08;;;;;;;34.67;19.47;;;;;;;6.05;100.00;98665.56;4202039;28;21905;-62
2022/04/06 10:57:58;;;;;;;31.87;19.13;;;;;;;6.25;100.00;98663.50;4190688;28;20229;-60
2022/04/06 11:00:27;;;;;;;33.33;20.27;;;;;;;6.45;100.00;98668.47;4185105;28;20238;-63
2022/04/06 11:03:03;;;;;;;36.20;20.87;;;;;;;6.59;100.00;98662.56;4186249;28;20240;-61
2022/04/06 11:05:44;;;;;;;40.53;21.70;;;;;;;6.72;100.00;98662.09;4171548;28;20299;-60
2022/04/06 11:11:40;;;;;;;32.27;19.90;;;;;;;6.82;100.00;98661.94;4200798;28;20240;-62
2022/04/06 11:14:07;;;;;;;30.93;19.70;;;;;;;6.93;100.00;98658.94;4189289;28;20675;-63
2022/04/06 11:16:46;;;;;;;37.00;19.90;;;;;;;6.87;100.00;98649.84;4216587;28;20344;-61
2022/04/06 11:19:14;;;;;;;30.97;20.23;;;;;;;6.95;100.00;98654.31;4182732;28;20238;-60
2022/04/06 11:21:48;;;;;;;36.60;21.90;;;;;;;7.03;100.00;98643.75;4186057;28;20236;-62
2022/04/06 11:24:19;;;;;;;37.17;21.67;;;;;;;7.11;100.00;98649.00;4196779;28;22106;-63
2022/04/06 11:26:46;;;;;;;36.57;21.27;;;;;;;7.21;100.00;98648.00;4211097;28;20248;-64
2022/04/06 11:29:13;;;;;;;32.30;20.73;;;;;;;7.29;100.00;98656.78;4183931;28;20229;-61
2022/04/06 11:32:04;;;;;;;31.17;19.73;;;;;;;7.33;100.00;98638.75;4188460;28;21008;-60
2022/04/06 11:34:32;;;;;;;36.07;20.77;;;;;;;7.41;100.00;98641.38;4200990;28;20244;-62
2022/04/06 11:37:00;;;;;;;37.23;21.97;;;;;;;7.32;100.00;98648.50;4189098;28;22398;-62